Time;durP1;ratioP1;P1;durP2;ratioP2;P2;SDS_P1;SDS_P2;PMS_P1;PMS_P2;Temp;Humidity;BMP_temperature;BMP_pressure;BME280_temperature;BME280_humidity;BME280_pressure;Samples;Min_cycle;Max_cycle;Signal;HPM_P1;HPM_P2
2021/05/24 00:00:25;;;;;;;2.30;0.70;;;13.70;72.20;;;;;;5037352;28;20281;-80
2021/05/24 00:02:52;;;;;;;2.53;0.80;;;13.70;71.30;;;;;;5071876;28;20161;-80
2021/05/24 00:05:20;;;;;;;1.20;0.60;;;13.70;71.80;;;;;;5056002;28;20169;-81
2021/05/24 00:07:46;;;;;;;1.65;0.80;;;13.70;71.30;;;;;;5054104;28;20168;-81
2021/05/24 00:10:16;;;;;;;1.90;0.90;;;13.70;71.90;;;;;;5071735;28;20750;-80
2021/05/24 00:12:49;;;;;;;1.67;0.70;;;13.70;72.60;;;;;;5054048;28;20171;-80
2021/05/24 00:15:19;;;;;;;1.27;0.70;;;13.70;72.80;;;;;;5053866;28;20245;-80
2021/05/24 00:17:46;;;;;;;1.60;0.73;;;13.60;75.10;;;;;;5053586;28;20177;-80
2021/05/24 00:20:12;;;;;;;1.75;0.70;;;13.60;73.60;;;;;;5071417;28;20194;-80
2021/05/24 00:22:38;;;;;;;1.35;0.70;;;13.60;74.20;;;;;;5053775;28;20176;-80
2021/05/24 00:25:05;;;;;;;4.07;1.77;;;13.60;74.50;;;;;;5071645;28;20160;-80
2021/05/24 00:27:32;;;;;;;2.53;0.70;;;13.60;74.90;;;;;;5071321;28;20172;-80
2021/05/24 00:29:58;;;;;;;1.80;1.15;;;13.60;76.50;;;;;;5053447;28;20161;-80
2021/05/24 00:32:23;;;;;;;1.57;0.70;;;13.60;75.60;;;;;;5071891;28;20164;-78
2021/05/24 00:34:49;;;;;;;1.50;0.70;;;13.60;76.00;;;;;;5037080;28;20180;-78
2021/05/24 00:37:15;;;;;;;1.97;0.90;;;13.60;76.50;;;;;;5036595;28;20579;-78
2021/05/24 00:39:41;;;;;;;2.15;0.80;;;13.60;77.40;;;;;;5053316;28;20211;-78
2021/05/24 00:42:07;;;;;;;2.30;0.67;;;13.60;77.50;;;;;;5053927;28;20243;-78
2021/05/24 00:44:33;;;;;;;2.10;0.80;;;13.60;79.70;;;;;;5054045;28;20628;-78
2021/05/24 00:46:58;;;;;;;1.40;0.60;;;13.60;79.50;;;;;;5053035;28;20571;-78
2021/05/24 00:49:29;;;;;;;1.33;0.60;;;13.60;79.60;;;;;;5036754;28;20660;-78
2021/05/24 00:51:56;;;;;;;1.45;0.60;;;13.60;81.00;;;;;;5053275;28;20599;-78
2021/05/24 00:54:23;;;;;;;3.15;0.73;;;13.60;80.00;;;;;;5053347;28;20176;-78
2021/05/24 00:56:49;;;;;;;1.38;0.70;;;13.60;80.90;;;;;;5036268;28;20198;-77
2021/05/24 00:59:16;;;;;;;1.40;0.80;;;13.50;82.50;;;;;;5053311;28;20196;-78
2021/05/24 01:01:42;;;;;;;2.15;0.70;;;13.50;82.60;;;;;;5036545;28;20598;-77
2021/05/24 01:04:08;;;;;;;3.30;0.65;;;13.50;83.30;;;;;;5053373;28;20167;-77
2021/05/24 01:06:33;;;;;;;3.33;0.70;;;13.50;83.80;;;;;;5052791;28;20251;-78
2021/05/24 01:08:59;;;;;;;1.50;0.57;;;13.40;83.90;;;;;;5053303;28;20601;-77
2021/05/24 01:11:25;;;;;;;1.77;0.70;;;13.40;84.30;;;;;;5036581;28;20624;-77
2021/05/24 01:13:51;;;;;;;1.70;0.90;;;13.40;85.00;;;;;;5053247;28;20179;-78
2021/05/24 01:16:17;;;;;;;2.60;1.20;;;13.40;85.00;;;;;;5036412;28;20566;-78
2021/05/24 01:18:42;;;;;;;1.30;0.80;;;13.40;86.50;;;;;;5055641;28;20577;-78
2021/05/24 01:21:10;;;;;;;1.47;0.70;;;13.40;86.10;;;;;;5042820;28;20522;-78
2021/05/24 01:23:43;;;;;;;2.28;0.75;;;13.40;86.00;;;;;;5055794;28;20176;-78
2021/05/24 01:26:09;;;;;;;2.60;0.63;;;13.30;88.60;;;;;;5074403;28;20164;-78
2021/05/24 01:28:35;;;;;;;2.63;0.70;;;13.30;87.80;;;;;;5023337;28;20651;-78
2021/05/24 01:31:02;;;;;;;1.20;0.70;;;13.30;88.20;;;;;;5056556;28;20212;-78
2021/05/24 01:33:28;;;;;;;1.38;0.60;;;13.30;90.40;;;;;;5074571;28;20314;-78
2021/05/24 01:35:54;;;;;;;2.43;0.70;;;13.30;90.10;;;;;;5040283;28;20255;-78
2021/05/24 01:38:20;;;;;;;1.40;0.80;;;13.30;90.10;;;;;;5039567;28;20194;-78
2021/05/24 01:40:47;;;;;;;1.40;0.60;;;13.20;90.80;;;;;;5039985;28;20203;-78
2021/05/24 01:43:15;;;;;;;1.90;0.80;;;13.20;90.60;;;;;;5056717;28;20307;-78
2021/05/24 01:45:42;;;;;;;2.58;0.90;;;13.20;92.10;;;;;;5023608;28;20535;-78
2021/05/24 01:48:08;;;;;;;3.92;0.77;;;13.20;92.20;;;;;;5022881;28;20259;-78
2021/05/24 01:50:35;;;;;;;2.58;0.70;;;13.20;92.20;;;;;;5074200;28;20191;-80
2021/05/24 01:53:00;;;;;;;5.78;0.80;;;13.20;92.30;;;;;;5056301;28;20535;-77
2021/05/24 01:55:26;;;;;;;3.00;0.60;;;13.20;92.40;;;;;;5056334;28;20222;-77
2021/05/24 01:57:55;;;;;;;2.10;1.13;;;13.20;92.40;;;;;;5057151;28;20635;-77
2021/05/24 02:00:22;;;;;;;2.30;0.63;;;13.20;92.70;;;;;;5023012;28;20299;-77
2021/05/24 02:02:50;;;;;;;2.78;1.00;;;13.20;92.80;;;;;;5023003;28;20532;-78
2021/05/24 02:05:17;;;;;;;3.17;0.70;;;13.20;92.60;;;;;;5056052;28;20575;-77
2021/05/24 02:07:46;;;;;;;1.20;0.60;;;13.10;93.00;;;;;;5055459;28;20176;-77
2021/05/24 02:10:15;;;;;;;1.38;0.60;;;13.10;93.40;;;;;;5022768;28;20186;-78
2021/05/24 02:12:41;;;;;;;1.10;0.60;;;13.10;92.80;;;;;;5073856;28;20259;-77
2021/05/24 02:15:09;;;;;;;1.77;0.60;;;13.10;93.10;;;;;;5055896;28;20255;-77
2021/05/24 02:17:35;;;;;;;1.20;0.70;;;13.10;93.50;;;;;;5055387;28;20693;-77
2021/05/24 02:20:01;;;;;;;2.57;0.73;;;13.10;93.30;;;;;;5055928;28;20200;-77
2021/05/24 02:22:27;;;;;;;1.42;0.63;;;13.10;94.00;;;;;;5056511;28;20559;-78
2021/05/24 02:24:52;;;;;;;4.30;0.80;;;13.00;93.90;;;;;;5055966;28;20180;-77
2021/05/24 02:27:18;;;;;;;1.97;0.60;;;13.00;94.50;;;;;;5055433;28;20169;-77
2021/05/24 02:29:44;;;;;;;4.10;0.67;;;13.00;94.70;;;;;;5055463;28;20169;-77
2021/05/24 02:32:09;;;;;;;2.50;0.70;;;13.00;94.90;;;;;;5039019;28;20204;-79
2021/05/24 02:34:35;;;;;;;1.50;0.67;;;13.00;95.30;;;;;;5041748;28;20642;-78
2021/05/24 02:37:03;;;;;;;2.60;0.70;;;13.00;95.30;;;;;;5038415;28;20567;-77
2021/05/24 02:39:29;;;;;;;2.50;0.68;;;13.00;95.70;;;;;;5055609;28;20615;-78
2021/05/24 02:41:55;;;;;;;1.48;0.60;;;13.00;95.40;;;;;;5055458;28;20186;-77
2021/05/24 02:44:21;;;;;;;2.10;0.80;;;12.90;95.30;;;;;;5055300;28;20171;-78
2021/05/24 02:46:47;;;;;;;1.98;0.82;;;12.90;95.60;;;;;;5021794;28;20570;-78
2021/05/24 02:49:12;;;;;;;1.87;0.70;;;12.90;96.60;;;;;;5055236;28;20172;-78
2021/05/24 02:51:38;;;;;;;1.30;0.70;;;12.90;97.10;;;;;;5055224;28;20191;-78
2021/05/24 02:54:05;;;;;;;1.93;0.80;;;12.90;96.50;;;;;;5038346;28;20539;-77
2021/05/24 02:56:32;;;;;;;1.33;0.70;;;12.90;97.50;;;;;;5054633;28;20165;-77
2021/05/24 02:58:58;;;;;;;1.52;0.70;;;12.90;97.70;;;;;;5055010;28;20175;-77
2021/05/24 03:01:26;;;;;;;1.57;0.80;;;12.90;97.90;;;;;;5038162;28;20188;-77
2021/05/24 03:03:54;;;;;;;1.90;0.70;;;12.90;97.60;;;;;;5038176;28;20678;-77
2021/05/24 03:06:21;;;;;;;3.53;0.88;;;12.90;98.10;;;;;;5054722;28;20175;-78
2021/05/24 03:08:48;;;;;;;1.20;0.70;;;12.90;98.00;;;;;;5054740;28;20168;-77
2021/05/24 03:11:14;;;;;;;2.13;1.00;;;12.90;98.80;;;;;;5023144;28;20640;-77
2021/05/24 03:13:41;;;;;;;2.17;0.80;;;12.90;98.90;;;;;;5054694;28;20246;-77
2021/05/24 03:16:07;;;;;;;2.35;0.70;;;13.00;98.70;;;;;;5054975;28;20621;-77
2021/05/24 03:18:32;;;;;;;1.20;0.60;;;13.00;98.50;;;;;;5054357;28;20179;-77
2021/05/24 03:20:58;;;;;;;1.97;0.70;;;13.00;98.60;;;;;;5038007;28;20192;-77
2021/05/24 03:23:24;;;;;;;2.80;0.70;;;13.00;98.60;;;;;;5054682;28;20164;-77
2021/05/24 03:25:50;;;;;;;1.87;0.60;;;13.10;98.60;;;;;;5038271;28;20169;-77
2021/05/24 03:28:15;;;;;;;1.97;0.80;;;13.10;98.50;;;;;;5037453;28;20173;-78
2021/05/24 03:30:41;;;;;;;2.13;0.70;;;13.10;98.20;;;;;;5054434;28;20225;-78
2021/05/24 03:33:07;;;;;;;1.67;0.60;;;13.10;98.60;;;;;;5054515;28;20687;-78
2021/05/24 03:35:32;;;;;;;2.13;0.60;;;13.20;98.60;;;;;;5072363;28;20171;-78
2021/05/24 03:37:59;;;;;;;2.50;0.70;;;13.20;99.20;;;;;;5037424;28;20168;-78
2021/05/24 03:40:24;;;;;;;2.22;0.70;;;13.20;98.80;;;;;;5036913;28;20197;-78
2021/05/24 03:42:50;;;;;;;1.20;0.60;;;13.20;99.20;;;;;;5021130;28;20519;-78
2021/05/24 03:45:18;;;;;;;2.03;0.70;;;13.20;99.40;;;;;;5054158;28;20230;-78
2021/05/24 03:47:45;;;;;;;1.30;0.60;;;13.20;99.60;;;;;;5056859;28;20161;-78
2021/05/24 03:50:11;;;;;;;2.03;0.70;;;13.30;99.30;;;;;;5037494;28;20239;-78
2021/05/24 03:52:37;;;;;;;1.52;0.70;;;13.30;99.80;;;;;;5054248;28;20172;-78
2021/05/24 03:55:04;;;;;;;1.20;0.70;;;13.30;99.80;;;;;;5037516;28;20613;-78
2021/05/24 03:57:30;;;;;;;2.67;0.70;;;13.30;99.80;;;;;;5037235;28;20586;-79
2021/05/24 03:59:56;;;;;;;1.50;0.70;;;13.30;99.90;;;;;;5020822;28;20242;-78
2021/05/24 04:02:21;;;;;;;2.20;0.80;;;13.30;99.90;;;;;;5037244;28;20184;-78
2021/05/24 04:04:48;;;;;;;1.30;0.60;;;13.40;99.90;;;;;;5053944;28;20179;-78
2021/05/24 04:07:20;;;;;;;1.30;0.60;;;13.50;99.90;;;;;;5037141;28;20169;-78
2021/05/24 04:09:46;;;;;;;1.48;0.80;;;13.50;99.90;;;;;;5071927;28;20168;-78
2021/05/24 04:12:12;;;;;;;1.92;0.70;;;13.50;99.90;;;;;;5071445;28;20186;-77
2021/05/24 04:14:39;;;;;;;1.42;0.70;;;13.60;99.90;;;;;;5071287;28;20182;-78
2021/05/24 04:17:06;;;;;;;3.05;0.60;;;13.70;99.90;;;;;;5036631;28;20172;-78
2021/05/24 04:19:31;;;;;;;1.77;1.15;;;13.70;99.90;;;;;;5053827;28;20192;-78
2021/05/24 04:21:57;;;;;;;1.95;0.60;;;13.80;99.90;;;;;;5054344;28;20198;-78
2021/05/24 04:24:23;;;;;;;2.33;0.70;;;13.90;99.90;;;;;;5054553;28;20160;-78
2021/05/24 04:26:49;;;;;;;2.03;0.80;;;13.90;99.90;;;;;;5055153;28;20620;-78
2021/05/24 04:29:15;;;;;;;1.83;0.80;;;13.90;99.90;;;;;;5055152;28;20172;-78
2021/05/24 04:31:40;;;;;;;1.40;0.70;;;14.00;99.80;;;;;;5037002;28;20213;-78
2021/05/24 04:34:06;;;;;;;1.70;0.67;;;14.00;99.80;;;;;;5071439;28;20172;-78
2021/05/24 04:36:32;;;;;;;2.10;0.70;;;14.10;99.60;;;;;;5053466;28;20575;-78
2021/05/24 04:38:58;;;;;;;1.90;0.70;;;14.10;99.60;;;;;;5036866;28;20192;-78
2021/05/24 04:41:23;;;;;;;2.13;0.80;;;14.20;99.60;;;;;;5037158;28;20522;-78
2021/05/24 04:43:51;;;;;;;2.17;0.60;;;14.20;99.40;;;;;;5071452;28;20179;-78
2021/05/24 04:46:17;;;;;;;1.98;0.73;;;14.30;99.40;;;;;;5053165;28;20269;-78
2021/05/24 04:48:43;;;;;;;1.40;0.60;;;14.30;99.50;;;;;;5020426;28;20172;-78
2021/05/24 04:51:08;;;;;;;1.30;0.60;;;14.30;99.60;;;;;;5053342;28;20223;-77
2021/05/24 04:53:34;;;;;;;6.03;2.10;;;14.30;99.40;;;;;;5057527;28;20164;-77
2021/05/24 04:56:00;;;;;;;2.53;0.90;;;14.40;99.20;;;;;;5040619;28;20172;-77
2021/05/24 04:58:26;;;;;;;1.20;0.60;;;14.40;99.20;;;;;;5040510;28;20176;-77
2021/05/24 05:00:52;;;;;;;2.90;0.60;;;14.40;99.10;;;;;;5057347;28;20325;-77
2021/05/24 05:03:18;;;;;;;1.67;0.60;;;14.50;99.10;;;;;;5060824;28;20195;-77
2021/05/24 05:05:44;;;;;;;2.50;0.63;;;14.50;99.00;;;;;;5057215;28;20566;-77
2021/05/24 05:08:09;;;;;;;2.63;0.70;;;14.50;98.90;;;;;;5056898;28;20183;-77
2021/05/24 05:10:35;;;;;;;3.37;0.83;;;14.50;98.80;;;;;;5057205;28;20258;-77
2021/05/24 05:13:01;;;;;;;1.97;0.60;;;14.60;98.80;;;;;;5075091;28;20179;-77
2021/05/24 05:15:27;;;;;;;2.17;0.70;;;14.70;98.80;;;;;;5075039;28;20572;-78
2021/05/24 05:17:53;;;;;;;1.50;0.60;;;14.80;99.00;;;;;;5074799;28;20578;-77
2021/05/24 05:20:19;;;;;;;2.23;0.70;;;14.80;98.70;;;;;;5074670;28;20626;-78
2021/05/24 05:22:44;;;;;;;2.13;0.70;;;14.90;98.70;;;;;;5074753;28;20218;-78
2021/05/24 05:25:11;;;;;;;1.30;0.50;;;15.00;98.80;;;;;;5056953;28;20628;-78
2021/05/24 05:27:37;;;;;;;1.80;0.57;;;15.20;99.10;;;;;;5074410;28;20593;-78
2021/05/24 05:30:04;;;;;;;1.20;0.60;;;15.60;99.60;;;;;;5056337;28;20567;-78
2021/05/24 05:32:30;;;;;;;1.60;0.70;;;16.00;99.20;;;;;;5023682;28;20263;-78
2021/05/24 05:34:55;;;;;;;1.10;0.60;;;16.40;98.60;;;;;;5074637;28;20669;-78
2021/05/24 05:37:22;;;;;;;1.60;0.70;;;16.60;97.80;;;;;;5056428;28;20177;-78
2021/05/24 05:39:52;;;;;;;1.40;0.60;;;16.70;97.00;;;;;;5058489;28;20200;-78
2021/05/24 05:42:20;;;;;;;1.30;0.60;;;16.80;96.60;;;;;;5074619;28;20627;-78
2021/05/24 05:44:46;;;;;;;3.97;0.63;;;16.80;96.50;;;;;;5074389;28;20575;-78
2021/05/24 05:47:11;;;;;;;1.63;0.80;;;17.00;96.50;;;;;;5074123;28;20594;-78
2021/05/24 05:49:37;;;;;;;1.30;0.50;;;17.30;96.30;;;;;;5039819;28;20568;-78
2021/05/24 05:52:04;;;;;;;1.60;0.70;;;18.00;97.00;;;;;;5056498;28;20188;-78
2021/05/24 05:54:30;;;;;;;1.73;0.50;;;18.70;97.40;;;;;;5074310;28;20168;-78
2021/05/24 05:56:55;;;;;;;1.80;0.60;;;19.40;96.50;;;;;;5074097;28;21453;-78
2021/05/24 05:59:21;;;;;;;1.70;0.50;;;20.10;96.10;;;;;;5056145;28;20235;-78
2021/05/24 06:01:47;;;;;;;3.17;0.67;;;20.90;95.30;;;;;;5074178;28;20536;-78
2021/05/24 06:04:13;;;;;;;2.13;0.57;;;21.20;91.10;;;;;;5073308;28;20206;-78
2021/05/24 06:06:38;;;;;;;1.10;0.50;;;21.10;89.00;;;;;;5073776;28;20251;-79
2021/05/24 06:09:04;;;;;;;3.40;0.60;;;21.10;88.90;;;;;;5074008;28;20235;-79
2021/05/24 06:11:30;;;;;;;2.13;0.60;;;21.20;85.30;;;;;;5073948;28;20192;-78
2021/05/24 06:13:56;;;;;;;2.07;0.60;;;21.50;86.40;;;;;;5073965;28;20911;-78
2021/05/24 06:16:22;;;;;;;2.47;0.80;;;21.80;86.00;;;;;;5077299;28;20176;-79
2021/05/24 06:18:47;;;;;;;2.20;0.53;;;22.20;85.60;;;;;;5073753;28;20562;-79
2021/05/24 06:21:15;;;;;;;1.50;0.50;;;23.00;86.20;;;;;;5073524;28;20558;-79
2021/05/24 06:23:45;;;;;;;1.13;0.50;;;23.50;84.40;;;;;;5055814;28;20632;-79
2021/05/24 06:26:12;;;;;;;1.47;0.50;;;23.80;80.70;;;;;;5055880;28;20570;-79
2021/05/24 06:28:38;;;;;;;1.93;0.60;;;24.30;82.90;;;;;;5055360;28;20936;-79
2021/05/24 06:31:04;;;;;;;1.63;0.50;;;24.70;78.50;;;;;;5071975;22;20611;-80
2021/05/24 06:33:29;;;;;;;3.40;0.70;;;25.00;77.80;;;;;;5118213;28;20560;-80
2021/05/24 06:35:55;;;;;;;2.00;0.60;;;25.20;76.10;;;;;;5080388;28;20666;-79
2021/05/24 06:38:24;;;;;;;1.40;0.60;;;25.40;72.70;;;;;;5114205;27;20554;-78
2021/05/24 06:40:50;;;;;;;1.70;0.60;;;25.70;69.90;;;;;;5114260;28;20172;-77
2021/05/24 06:43:15;;;;;;;1.40;0.60;;;26.00;71.70;;;;;;5114399;28;21127;-77
2021/05/24 06:45:41;;;;;;;1.27;0.40;;;26.30;69.30;;;;;;5095575;28;20253;-78
2021/05/24 06:48:07;;;;;;;1.80;0.60;;;26.40;64.30;;;;;;5095515;28;20178;-78
2021/05/24 06:50:33;;;;;;;1.17;0.50;;;26.30;62.70;;;;;;5095713;28;20207;-77
2021/05/24 06:52:58;;;;;;;2.03;0.50;;;26.40;63.50;;;;;;5113859;28;20183;-77
2021/05/24 06:55:24;;;;;;;1.60;0.50;;;26.60;63.10;;;;;;5112666;28;20596;-78
2021/05/24 06:57:50;;;;;;;2.07;0.50;;;26.70;61.60;;;;;;5113308;28;20155;-77
2021/05/24 07:00:16;;;;;;;1.33;0.50;;;27.10;61.80;;;;;;5113789;28;20571;-78
2021/05/24 07:02:42;;;;;;;1.57;0.50;;;27.40;60.70;;;;;;5112573;28;20191;-77
2021/05/24 07:05:09;;;;;;;2.40;0.53;;;27.50;59.80;;;;;;5113889;28;20674;-78
2021/05/24 07:07:35;;;;;;;1.30;0.70;;;27.60;58.20;;;;;;5112032;28;20572;-78
2021/05/24 07:10:06;;;;;;;1.80;0.60;;;27.50;55.80;;;;;;5113509;28;20620;-78
2021/05/24 07:12:31;;;;;;;1.87;0.50;;;27.50;55.90;;;;;;5116948;28;20589;-78
2021/05/24 07:14:57;;;;;;;2.13;0.50;;;27.80;57.10;;;;;;5113357;28;20999;-78
2021/05/24 07:17:23;;;;;;;1.00;0.40;;;28.20;56.00;;;;;;5111866;28;20162;-78
2021/05/24 07:19:50;;;;;;;2.23;0.70;;;28.70;56.90;;;;;;5113238;28;20563;-78
2021/05/24 07:22:16;;;;;;;2.33;0.50;;;28.80;54.30;;;;;;5113285;28;20182;-78
2021/05/24 07:24:42;;;;;;;1.97;0.50;;;29.00;53.60;;;;;;5095017;28;20575;-78
2021/05/24 07:27:07;;;;;;;1.30;0.50;;;29.10;51.60;;;;;;5113230;28;20167;-78
2021/05/24 07:29:33;;;;;;;1.20;0.43;;;29.20;52.00;;;;;;5111947;28;20294;-78
2021/05/24 07:31:59;;;;;;;2.27;0.50;;;29.70;52.40;;;;;;5094426;28;21212;-78
2021/05/24 07:34:26;;;;;;;1.20;0.50;;;29.80;50.80;;;;;;5112245;28;20262;-78
2021/05/24 07:36:52;;;;;;;2.40;0.50;;;29.70;50.20;;;;;;5112706;28;21049;-78
2021/05/24 07:39:18;;;;;;;1.73;0.60;;;30.00;51.50;;;;;;5111641;28;20214;-78
2021/05/24 07:41:44;;;;;;;1.50;0.50;;;30.50;50.50;;;;;;5112659;28;20278;-78
2021/05/24 07:44:10;;;;;;;2.37;0.83;;;30.40;48.60;;;;;;5111668;28;20179;-78
2021/05/24 07:46:36;;;;;;;1.33;0.57;;;30.40;47.70;;;;;;5111543;28;21353;-78
2021/05/24 07:49:02;;;;;;;1.30;0.53;;;30.00;47.80;;;;;;5117750;28;20167;-78
2021/05/24 07:51:36;;;;;;;1.57;0.50;;;29.90;47.60;;;;;;5094699;28;20604;-78
2021/05/24 07:54:02;;;;;;;1.27;0.67;;;29.90;47.40;;;;;;5094630;28;20171;-78
2021/05/24 07:56:27;;;;;;;2.90;0.60;;;29.70;47.00;;;;;;5111052;28;20553;-78
2021/05/24 07:58:53;;;;;;;2.33;0.67;;;29.20;46.00;;;;;;5102087;28;21160;-78
2021/05/24 08:01:19;;;;;;;1.60;0.63;;;28.70;45.70;;;;;;5108171;28;20183;-78
2021/05/24 08:03:44;;;;;;;1.30;0.43;;;28.30;46.30;;;;;;5091171;28;20199;-78
2021/05/24 08:06:10;;;;;;;1.53;0.50;;;28.00;46.30;;;;;;5096242;28;20210;-79
2021/05/24 08:08:36;;;;;;;2.80;0.70;;;27.70;47.00;;;;;;5110579;28;20170;-77
2021/05/24 08:11:02;;;;;;;1.27;0.50;;;27.30;46.40;;;;;;5112226;28;20284;-77
2021/05/24 08:13:29;;;;;;;2.07;0.50;;;26.90;46.70;;;;;;5111090;28;20652;-77
2021/05/24 08:15:55;;;;;;;1.20;0.43;;;26.60;47.20;;;;;;5112416;28;20565;-77
2021/05/24 08:18:20;;;;;;;2.07;0.60;;;26.10;47.30;;;;;;5110446;28;20569;-79
2021/05/24 08:20:48;;;;;;;1.73;0.70;;;25.60;47.50;;;;;;5112160;28;20722;-80
2021/05/24 08:23:14;;;;;;;1.57;0.47;;;25.10;47.60;;;;;;5111056;28;20192;-79
2021/05/24 08:25:39;;;;;;;1.83;0.50;;;24.60;48.20;;;;;;5116468;28;20565;-79
2021/05/24 08:28:05;;;;;;;1.80;0.43;;;24.30;48.60;;;;;;5111390;28;20159;-79
2021/05/24 08:30:32;;;;;;;2.10;0.53;;;24.00;49.00;;;;;;5110803;28;20213;-79
2021/05/24 08:32:58;;;;;;;1.10;0.50;;;23.60;49.30;;;;;;5097512;28;20996;-79
2021/05/24 08:35:24;;;;;;;2.03;0.50;;;23.30;49.60;;;;;;5091616;28;20569;-78
2021/05/24 08:37:49;;;;;;;1.50;0.47;;;23.10;50.10;;;;;;5091006;28;21100;-77
2021/05/24 08:40:17;;;;;;;2.27;0.90;;;22.90;50.50;;;;;;5091557;28;20213;-77
2021/05/24 08:42:44;;;;;;;1.63;0.57;;;22.80;50.90;;;;;;5090280;28;20543;-77
2021/05/24 08:45:13;;;;;;;1.87;0.53;;;22.80;51.20;;;;;;5056778;28;20569;-76
2021/05/24 08:47:42;;;;;;;1.47;0.60;;;22.60;51.10;;;;;;5072938;28;20562;-77
2021/05/24 08:50:09;;;;;;;1.40;0.60;;;22.50;51.10;;;;;;5090067;28;20617;-77
2021/05/24 08:52:37;;;;;;;1.70;0.50;;;22.30;51.10;;;;;;5091338;28;20925;-76
2021/05/24 08:55:07;;;;;;;1.20;0.50;;;22.20;51.30;;;;;;5089823;28;20623;-76
2021/05/24 08:57:40;;;;;;;1.47;0.50;;;22.10;51.30;;;;;;5091205;28;20558;-75
2021/05/24 09:00:08;;;;;;;2.03;0.60;;;22.00;51.40;;;;;;5091270;28;20902;-76
2021/05/24 09:02:40;;;;;;;1.83;0.50;;;21.90;51.40;;;;;;5095813;28;20649;-76
2021/05/24 09:05:09;;;;;;;1.90;1.00;;;21.80;51.30;;;;;;5092835;28;20627;-75
2021/05/24 09:07:52;;;;;;;1.83;0.60;;;21.70;51.30;;;;;;5103172;28;20946;-76
2021/05/24 09:10:20;;;;;;;1.80;0.53;;;21.50;51.30;;;;;;5083804;28;20724;-76
2021/05/24 09:12:45;;;;;;;2.13;0.50;;;21.50;51.50;;;;;;5101841;28;20985;-76
2021/05/24 09:15:14;;;;;;;2.07;0.60;;;21.30;51.60;;;;;;5090005;28;20584;-76
2021/05/24 09:17:44;;;;;;;1.30;0.60;;;21.30;51.70;;;;;;5103889;28;20239;-77
2021/05/24 09:20:19;;;;;;;1.70;0.60;;;21.20;51.90;;;;;;5092627;28;20682;-76
2021/05/24 09:23:03;;;;;;;2.40;0.60;;;21.10;52.00;;;;;;5102785;28;21026;-76
2021/05/24 09:26:17;;;;;;;1.47;0.50;;;21.10;52.20;;;;;;5089751;28;20570;-76
2021/05/24 09:28:51;;;;;;;4.53;1.13;;;21.00;52.30;;;;;;5089175;28;20588;-77
2021/05/24 09:31:26;;;;;;;2.83;0.60;;;20.90;52.20;;;;;;5090964;28;20620;-76
2021/05/24 09:33:56;;;;;;;2.10;0.60;;;20.90;52.40;;;;;;5073657;28;20569;-76
2021/05/24 09:36:22;;;;;;;3.30;0.70;;;20.90;52.60;;;;;;5090510;28;20563;-76
2021/05/24 09:39:09;;;;;;;2.90;0.60;;;20.90;52.70;;;;;;5102362;28;20585;-76
2021/05/24 09:41:44;;;;;;;1.90;0.90;;;20.90;52.70;;;;;;5107052;28;20616;-76
2021/05/24 09:44:21;;;;;;;1.70;0.50;;;21.00;52.80;;;;;;5114570;28;20572;-77
2021/05/24 09:46:48;;;;;;;1.40;0.60;;;21.00;52.70;;;;;;5114251;28;20568;-77
2021/05/24 09:49:14;;;;;;;2.50;0.60;;;21.00;52.60;;;;;;5113517;28;20572;-77
2021/05/24 09:51:40;;;;;;;5.60;0.70;;;21.00;52.50;;;;;;5114686;28;20596;-78
2021/05/24 09:54:07;;;;;;;1.83;0.50;;;20.90;52.40;;;;;;5114943;28;20617;-77
2021/05/24 09:56:38;;;;;;;1.30;0.40;;;20.90;52.50;;;;;;5113937;28;20568;-77
2021/05/24 09:59:15;;;;;;;2.40;0.50;;;20.80;52.60;;;;;;5114712;28;20553;-77
2021/05/24 10:01:45;;;;;;;1.40;0.60;;;20.80;52.90;;;;;;5114264;28;20603;-77
2021/05/24 10:04:17;;;;;;;2.07;0.90;;;20.80;52.90;;;;;;5113306;28;20568;-78
2021/05/24 10:06:44;;;;;;;1.40;0.50;;;20.80;52.70;;;;;;5112610;28;20576;-77
2021/05/24 10:09:12;;;;;;;1.80;0.60;;;20.80;52.70;;;;;;5114415;28;20592;-77
2021/05/24 10:11:43;;;;;;;1.77;0.70;;;20.70;52.50;;;;;;5112722;28;20597;-77
2021/05/24 10:14:10;;;;;;;1.40;0.50;;;20.70;52.60;;;;;;5113092;28;21041;-77
2021/05/24 10:16:45;;;;;;;1.77;0.50;;;20.60;52.60;;;;;;5115566;28;20572;-77
2021/05/24 10:19:14;;;;;;;1.70;0.50;;;20.60;52.80;;;;;;5114330;28;20594;-78
2021/05/24 10:21:40;;;;;;;2.97;0.60;;;20.60;52.90;;;;;;5112459;28;20580;-78
2021/05/24 10:24:07;;;;;;;1.80;0.80;;;20.60;53.00;;;;;;5112416;28;20591;-78
2021/05/24 10:26:34;;;;;;;2.90;0.60;;;20.50;52.90;;;;;;5106755;28;21154;-78
2021/05/24 10:29:05;;;;;;;1.73;0.60;;;20.50;52.80;;;;;;5112910;28;20641;-78
2021/05/24 10:31:32;;;;;;;1.50;0.50;;;20.50;52.90;;;;;;5095143;28;21162;-77
2021/05/24 10:34:22;;;;;;;1.20;0.50;;;20.40;53.00;;;;;;5112704;28;20634;-77
2021/05/24 10:37:08;;;;;;;4.50;0.60;;;20.40;52.70;;;;;;5112989;28;21107;-77
2021/05/24 10:39:46;;;;;;;3.47;0.57;;;20.40;52.90;;;;;;5113738;28;20624;-77
2021/05/24 10:42:13;;;;;;;1.13;0.50;;;20.40;53.10;;;;;;5095337;28;20615;-77
2021/05/24 10:44:45;;;;;;;1.20;0.50;;;20.30;52.70;;;;;;5112571;28;20659;-77
2021/05/24 10:47:24;;;;;;;1.20;0.50;;;20.30;52.90;;;;;;5113104;28;20564;-77
2021/05/24 10:50:05;;;;;;;1.27;0.70;;;20.30;52.90;;;;;;5113255;28;20686;-77
2021/05/24 10:52:35;;;;;;;1.63;0.60;;;20.30;53.10;;;;;;5114146;28;20968;-77
2021/05/24 10:55:21;;;;;;;4.07;0.60;;;20.30;53.30;;;;;;5114501;28;20929;-77
2021/05/24 10:58:13;;;;;;;2.00;0.60;;;20.30;53.40;;;;;;5111663;28;20584;-77
2021/05/24 11:00:59;;;;;;;2.17;0.50;;;20.30;53.70;;;;;;5094933;28;20638;-77
2021/05/24 11:03:26;;;;;;;1.80;0.50;;;20.30;54.20;;;;;;5094789;28;20615;-76
2021/05/24 11:06:13;;;;;;;1.60;0.60;;;20.30;54.00;;;;;;5110950;28;20572;-76
2021/05/24 11:08:44;;;;;;;1.20;0.63;;;20.30;54.50;;;;;;5114019;28;20561;-77
2021/05/24 11:11:23;;;;;;;1.00;0.40;;;20.30;54.40;;;;;;5112809;28;20969;-76
2021/05/24 11:13:56;;;;;;;2.73;0.60;;;20.30;54.80;;;;;;5106362;28;20582;-77
2021/05/24 11:16:22;;;;;;;1.40;0.50;;;20.30;55.00;;;;;;5091187;28;20665;-77
2021/05/24 11:18:48;;;;;;;1.00;0.40;;;20.40;55.20;;;;;;5091973;28;20564;-77
2021/05/24 11:21:15;;;;;;;1.83;0.80;;;20.40;55.60;;;;;;5091617;28;20728;-77
2021/05/24 11:26:22;;;;;;;1.10;0.40;;;20.40;56.00;;;;;;5091705;28;20918;-77
2021/05/24 11:29:07;;;;;;;1.10;0.40;;;20.50;56.20;;;;;;5095434;28;20649;-77
2021/05/24 11:31:36;;;;;;;4.97;0.43;;;20.50;56.60;;;;;;5104100;28;20635;-77
2021/05/24 11:34:03;;;;;;;1.20;0.50;;;20.50;56.60;;;;;;5119065;28;20580;-77
2021/05/24 11:36:35;;;;;;;1.10;0.50;;;20.40;56.80;;;;;;5121275;28;20594;-76
2021/05/24 11:39:26;;;;;;;1.20;0.40;;;20.30;57.60;;;;;;5121538;28;21027;-76
2021/05/24 11:41:53;;;;;;;1.93;0.60;;;20.20;57.40;;;;;;5097917;28;20605;-77
2021/05/24 11:44:22;;;;;;;1.10;0.40;;;20.10;57.40;;;;;;5063837;28;20577;-77
2021/05/24 11:46:53;;;;;;;1.00;0.40;;;20.00;57.80;;;;;;5106601;28;20605;-77
2021/05/24 11:49:30;;;;;;;2.17;0.40;;;19.90;57.70;;;;;;5100264;28;20569;-77
2021/05/24 11:51:56;;;;;;;4.40;0.70;;;19.90;58.10;;;;;;5102833;28;20700;-78
2021/05/24 11:54:25;;;;;;;1.03;0.47;;;19.90;58.40;;;;;;5107290;28;20566;-77
2021/05/24 11:56:56;;;;;;;1.83;0.40;;;19.90;58.50;;;;;;5103530;28;20562;-76
2021/05/24 11:59:27;;;;;;;2.07;0.40;;;19.90;59.00;;;;;;5096759;28;20574;-76
2021/05/24 12:01:55;;;;;;;1.00;0.40;;;19.80;58.80;;;;;;5093399;28;20605;-77
2021/05/24 12:04:23;;;;;;;1.20;0.40;;;19.80;59.10;;;;;;5093866;28;20568;-78
2021/05/24 12:06:52;;;;;;;1.30;0.40;;;19.70;59.10;;;;;;5109847;28;20592;-78
2021/05/24 12:09:53;;;;;;;0.90;0.30;;;19.60;59.30;;;;;;5114822;28;20568;-78
2021/05/24 12:12:29;;;;;;;0.90;0.33;;;19.60;59.80;;;;;;5104702;28;20597;-78
2021/05/24 12:15:01;;;;;;;1.10;0.40;;;19.50;59.80;;;;;;5111413;28;20583;-78
2021/05/24 12:17:33;;;;;;;1.20;0.50;;;19.50;60.00;;;;;;5112645;28;20921;-78
2021/05/24 12:20:00;;;;;;;1.63;0.40;;;19.50;60.60;;;;;;5112319;28;20619;-77
2021/05/24 12:22:29;;;;;;;1.67;0.40;;;19.50;60.80;;;;;;5110910;28;20719;-77
2021/05/24 12:24:57;;;;;;;0.90;0.30;;;19.50;61.30;;;;;;5112219;28;20565;-78
2021/05/24 12:27:25;;;;;;;1.10;0.40;;;19.50;61.50;;;;;;5111415;28;20612;-77
2021/05/24 12:29:51;;;;;;;1.20;0.87;;;19.60;61.80;;;;;;5111769;28;20587;-78
2021/05/24 12:34:57;;;;;;;1.00;0.40;;;19.60;62.20;;;;;;5067953;28;20642;-78
2021/05/24 12:37:24;;;;;;;1.10;0.40;;;19.70;62.40;;;;;;5069822;28;21113;-78
2021/05/24 12:39:53;;;;;;;1.20;0.40;;;19.80;62.60;;;;;;5036423;28;21259;-78
2021/05/24 12:42:20;;;;;;;1.10;0.33;;;19.90;62.80;;;;;;5053163;28;20637;-78
2021/05/24 12:44:45;;;;;;;1.87;0.40;;;19.90;62.80;;;;;;5032975;28;20563;-78
2021/05/24 12:47:20;;;;;;;1.10;0.40;;;20.00;63.30;;;;;;5032670;28;20583;-78
2021/05/24 12:49:48;;;;;;;1.10;0.40;;;20.00;63.30;;;;;;5016648;28;20182;-78
2021/05/24 12:52:16;;;;;;;1.00;0.40;;;20.20;64.40;;;;;;5033258;28;20567;-78
2021/05/24 12:54:48;;;;;;;1.30;0.40;;;20.20;63.30;;;;;;5032852;28;20697;-78
2021/05/24 12:57:17;;;;;;;1.00;0.40;;;20.20;63.40;;;;;;5050647;28;20621;-78